Data for 12/11/2014

Time Sea-Level Adjusted Pressure Absolute Pressure Temperature Relative Humidity Dew Point   
(mb) (inHg) (mb) (inHg) (C) (F) (%) (C) (F)
00:05 1014 29.94 843 24.89 5.4 41.8 46 -5.2 22.7
00:10 1014 29.94 843 24.89 5.9 42.7 45 -5 23
00:15 1014 29.94 843 24.89 6.4 43.5 42 -5.7 21.7
00:20 1014 29.94 843 24.89 6.7 44.1 40 -5.9 21.4
00:25 1014 29.94 843 24.89 7.3 45.1 39 -5.9 21.5
00:30 1014 29.94 843 24.89 7.3 45.1 40 -5.3 22.4
00:35 1014 29.94 843 24.89 6.9 44.4 41 -5.5 22.1
00:40 1013 29.91 843 24.89 6.8 44.2 41 -5.6 21.9
00:45 1013 29.91 843 24.89 6.7 44 42 -5.2 22.6
00:50 1013 29.91 842 24.86 6.2 43.2 42 -5.7 21.8
00:55 1013 29.91 842 24.86 6.2 43.2 44 -5.1 22.9
01:00 1013 29.91 842 24.86 6.1 42.9 43 -5.6 21.9
01:05 1013 29.91 842 24.86 6.4 43.6 42 -5.6 22
01:10 1013 29.91 842 24.86 6.7 44 40 -5.8 21.5
01:15 1013 29.91 842 24.86 6.9 44.5 40 -5.7 21.8
01:20 1013 29.91 842 24.86 7.1 44.7 40 -5.6 21.9
01:25 1013 29.91 842 24.86 7.1 44.8 38 -6.1 21
01:30 1013 29.91 842 24.86 7.4 45.4 39 -5.6 21.8
01:35 1012 29.88 842 24.86 7.4 45.2 36 -6.7 20
01:40 1012 29.88 841 24.83 7.8 46.1 37 -5.9 21.3
01:45 1012 29.88 841 24.83 7.9 46.2 33 -7.2 19
01:50 1012 29.88 841 24.83 8.2 46.8 36 -6.1 21.1
01:55 1012 29.88 841 24.83 8.1 46.6 36 -6.1 21
02:00 1012 29.88 841 24.83 8.4 47 35 -6.2 20.8
02:05 1012 29.88 841 24.83 8.6 47.6 32 -7.2 19.1
02:10 1012 29.88 841 24.83 9 48.1 33 -6.6 20.2
02:15 1012 29.88 841 24.83 9.3 48.8 29 -8 17.6
02:20 1012 29.88 841 24.83 10.5 50.9 26 -8.1 17.5
02:25 1012 29.88 841 24.83 10.9 51.6 28 -7 19.4
02:30 1012 29.88 841 24.83 10.8 51.5 27 -7.3 18.9
02:35 1012 29.88 841 24.83 10.4 50.7 29 -7.1 19.3
02:40 1012 29.88 841 24.83 10.3 50.5 26 -8.5 16.7
02:45 1012 29.88 841 24.83 10.8 51.4 28 -7.1 19.1
02:50 1012 29.88 841 24.83 10.5 51 28 -7.4 18.7
02:55 1012 29.88 841 24.83 10.4 50.7 30 -6.5 20.3
03:00 1012 29.88 841 24.83 10.1 50.2 26 -8.5 16.8
03:05 1012 29.88 841 24.83 10.8 51.4 27 -7.6 18.4
03:10 1012 29.88 841 24.83 10.2 50.4 32 -5.6 21.9
03:15 1012 29.88 841 24.83 8.4 47.2 33 -7 19.5
03:20 1012 29.88 841 24.83 8.3 47 35 -6.3 20.7
03:25 1012 29.88 841 24.83 7.9 46.1 37 -6.1 21
03:30 1012 29.88 841 24.83 7.7 45.9 36 -6.3 20.6
03:35 1012 29.88 841 24.83 7.6 45.6 37 -6.1 21
03:40 1012 29.88 841 24.83 7.6 45.6 35 -6.7 19.9
03:45 1012 29.88 841 24.83 7.8 46.1 38 -5.5 22.1
03:50 1012 29.88 841 24.83 7 44.6 41 -5.4 22.3
03:55 1012 29.88 841 24.83 6.5 43.8 42 -5.3 22.4
04:00 1012 29.88 841 24.83 6.4 43.5 41 -6 21.2
04:05 1012 29.88 841 24.83 6.7 44 42 -5.3 22.4
04:10 1012 29.88 841 24.83 6.3 43.3 41 -5.9 21.4
04:15 1012 29.88 841 24.83 6.3 43.4 42 -5.6 21.9
04:20 1012 29.88 841 24.83 6.3 43.3 40 -6.2 20.8
04:25 1012 29.88 841 24.83 6.7 44 42 -5.2 22.6
04:30 1012 29.88 841 24.83 6.1 43 42 -6 21.3
04:35 1012 29.88 841 24.83 6.3 43.4 44 -4.9 23.2
04:40 1012 29.88 841 24.83 6.1 43 47 -4.3 24.2
04:45 1012 29.88 841 24.83 6.7 44 41 -5.5 22
04:50 1012 29.88 841 24.83 5.9 42.6 43 -5.8 21.6
04:55 1012 29.88 841 24.83 5.7 42.3 44 -5.6 21.9
05:00 1012 29.88 841 24.83 5.8 42.4 42 -6.1 20.9
05:05 1012 29.88 841 24.83 6.3 43.3 41 -6 21.1
05:10 1012 29.88 841 24.83 6.4 43.6 40 -6.3 20.6
05:15 1012 29.88 841 24.83 6.5 43.8 39 -6.4 20.5
05:20 1012 29.88 841 24.83 6.7 44.1 38 -6.7 19.9
05:25 1012 29.88 841 24.83 6.6 43.8 39 -6.5 20.2
05:30 1012 29.88 841 24.83 6.3 43.3 38 -7 19.4
05:35 1012 29.88 841 24.83 6.5 43.6 36 -7.4 18.7
05:40 1012 29.88 841 24.83 7.2 45 35 -7.3 18.9
05:45 1012 29.88 841 24.83 7.3 45.1 35 -7.2 19.1
05:50 1012 29.88 841 24.83 7.3 45.2 34 -7.4 18.7
05:55 1012 29.88 841 24.83 7.7 45.9 32 -7.8 17.9
06:00 1012 29.88 841 24.83 8.5 47.2 31 -7.9 17.8
06:05 1012 29.88 841 24.83 8.6 47.5 32 -7.2 19
06:10 1012 29.88 841 24.83 7.8 46 36 -6.4 20.5
06:15 1012 29.88 841 24.83 7.4 45.4 30 -8.8 16.1
06:20 1012 29.88 841 24.83 8.7 47.7 30 -7.9 17.7
06:25 1012 29.88 841 24.83 8.8 47.9 30 -7.7 18.1
06:30 1012 29.88 841 24.83 8.7 47.6 30 -7.9 17.7
06:35 1012 29.88 841 24.83 8.8 47.8 28 -8.7 16.3
06:40 1012 29.88 841 24.83 8.7 47.6 30 -7.8 18
06:45 1012 29.88 841 24.83 8.5 47.2 29 -8.6 16.4
06:50 1012 29.88 841 24.83 9.5 49 24 -10.3 13.4
06:55 1012 29.88 841 24.83 9.5 49.1 29 -7.8 17.9
07:00 1012 29.88 841 24.83 9 48.2 28 -8.5 16.7
07:05 1012 29.88 841 24.83 9.2 48.6 28 -8.4 16.9
07:10 1012 29.88 841 24.83 9 48.2 29 -8.2 17.2
07:15 1012 29.88 841 24.83 9 48.1 28 -8.5 16.6
07:20 1012 29.88 841 24.83 9.2 48.5 28 -8.5 16.6
07:25 1012 29.88 841 24.83 9 48.2 28 -8.7 16.4
07:30 1012 29.88 841 24.83 9.2 48.6 28 -8.6 16.6
07:35 1012 29.88 841 24.83 9 48.2 28 -8.5 16.7
07:40 1012 29.88 841 24.83 8.9 48 29 -8.2 17.3
07:45 1012 29.88 841 24.83 8.5 47.3 29 -8.4 16.9
07:50 1012 29.88 841 24.83 8.6 47.6 27 -9.3 15.3
07:55 1012 29.88 841 24.83 9.3 48.7 28 -8.4 17
08:00 1012 29.88 841 24.83 8.8 47.8 29 -8.2 17.2
08:05 1012 29.88 841 24.83 8.2 46.8 30 -8.5 16.7
08:10 1012 29.88 841 24.83 8.1 46.6 29 -9.1 15.7
08:15 1012 29.88 841 24.83 8.4 47.1 29 -8.8 16.1
08:20 1012 29.88 841 24.83 8.5 47.3 28 -9 15.9
08:25 1012 29.88 841 24.83 8.9 47.9 28 -8.5 16.7
08:30 1012 29.88 841 24.83 8.3 46.9 30 -8.2 17.3
08:35 1012 29.88 841 24.83 7.6 45.6 31 -8.7 16.3
08:40 1012 29.88 841 24.83 7.6 45.7 32 -8.2 17.2
08:45 1012 29.88 841 24.83 7.1 44.7 32 -8.5 16.7
08:50 1012 29.88 841 24.83 7.2 44.9 32 -8.4 16.9
08:55 1012 29.88 841 24.83 7.2 44.9 33 -8.2 17.3
09:00 1012 29.88 841 24.83 6.9 44.4 32 -8.5 16.6
09:05 1012 29.88 841 24.83 7.5 45.5 30 -9 15.7
09:10 1012 29.88 841 24.83 7.9 46.2 30 -8.7 16.4
09:15 1012 29.88 841 24.83 8 46.3 29 -9.1 15.6
09:20 1012 29.88 842 24.86 8.2 46.7 28 -9.2 15.4
09:25 1012 29.88 841 24.83 9 48.1 27 -9.1 15.6
09:30 1012 29.88 841 24.83 9.4 49 26 -9.2 15.4
09:35 1012 29.88 841 24.83 9.8 49.6 24 -9.8 14.3
09:40 1012 29.88 841 24.83 10.5 51 23 -10 14.1
09:45 1012 29.88 841 24.83 11.1 51.9 22 -9.8 14.4
09:50 1012 29.88 841 24.83 11.1 52 23 -9.4 15.1
09:55 1012 29.88 841 24.83 11.2 52.2 23 -9.4 15.2
10:00 1012 29.88 841 24.83 11 51.9 24 -8.7 16.3
10:05 1012 29.88 841 24.83 10.9 51.6 23 -9.2 15.5
10:10 1012 29.88 841 24.83 10.9 51.7 25 -8.6 16.6
10:15 1012 29.88 841 24.83 10.6 51.2 24 -8.8 16.1
10:20 1012 29.88 841 24.83 10.1 50.1 25 -8.9 16
10:25 1012 29.88 841 24.83 9.8 49.7 26 -8.9 15.9
10:30 1012 29.88 841 24.83 9.7 49.4 26 -9.1 15.6
10:35 1012 29.88 841 24.83 9.8 49.7 23 -10.1 13.9
10:40 1012 29.88 841 24.83 10.7 51.3 23 -9.6 14.8
10:45 1012 29.88 841 24.83 10.9 51.5 23 -9.4 15
10:50 1012 29.88 841 24.83 11.1 51.9 23 -9.5 14.9
10:55 1012 29.88 841 24.83 11.4 52.6 23 -9.2 15.5
11:00 1012 29.88 841 24.83 11.7 53.1 23 -8.8 16.1
11:05 1012 29.88 841 24.83 11.8 53.2 23 -8.6 16.5
11:10 1012 29.88 841 24.83 11.1 52 24 -8.6 16.5
11:15 1012 29.88 841 24.83 11 51.8 24 -8.9 15.9
11:20 1012 29.88 841 24.83 10.7 51.2 25 -8.5 16.7
11:25 1012 29.88 841 24.83 10.4 50.8 25 -8.6 16.4
11:30 1012 29.88 841 24.83 10.5 50.9 25 -8.5 16.8
11:35 1012 29.88 842 24.86 10.5 50.9 26 -8 17.5
11:40 1013 29.91 842 24.86 10.7 51.2 25 -8.7 16.4
11:45 1013 29.91 842 24.86 10.8 51.4 26 -8.1 17.5
11:50 1013 29.91 842 24.86 10.7 51.2 27 -7.5 18.4
11:55 1012 29.88 842 24.86 10.4 50.6 26 -8.5 16.7
12:00 1012 29.88 841 24.83 10.6 51 26 -7.9 17.8
12:05 1012 29.88 841 24.83 10.3 50.6 26 -8.2 17.2
12:10 1012 29.88 841 24.83 10.2 50.4 28 -7.7 18.2
12:15 1012 29.88 841 24.83 10.1 50.2 28 -7.6 18.2
12:20 1012 29.88 841 24.83 10.1 50.1 28 -7.8 18
12:25 1012 29.88 841 24.83 10 50.1 27 -7.9 17.8
12:30 1011 29.85 841 24.83 10.2 50.3 28 -7.6 18.2
12:35 1011 29.85 841 24.83 10.1 50.2 28 -7.4 18.6
12:40 1011 29.85 841 24.83 10 50 28 -7.6 18.2
12:45 1011 29.85 840 24.81 10.2 50.3 27 -7.8 17.9
12:50 1011 29.85 840 24.81 10.5 50.9 26 -8 17.6
12:55 1011 29.85 840 24.81 11 51.8 26 -7.8 17.9
13:00 1011 29.85 840 24.81 10.9 51.6 27 -7.4 18.6
13:05 1011 29.85 840 24.81 11.1 51.9 25 -8.3 17
13:10 1011 29.85 840 24.81 11.4 52.6 25 -7.8 17.9
13:15 1011 29.85 840 24.81 11.6 52.9 25 -7.7 18.2
13:20 1011 29.85 840 24.81 11.6 52.8 24 -8.2 17.2
13:25 1011 29.85 840 24.81 11.9 53.5 23 -8.5 16.7
13:30 1011 29.85 840 24.81 12.1 53.7 24 -8.1 17.4
13:35 1011 29.85 840 24.81 12.1 53.8 23 -8.2 17.2
13:40 1011 29.85 840 24.81 12.3 54.2 23 -8.4 16.9
13:45 1011 29.85 840 24.81 12.6 54.7 23 -7.9 17.9
13:50 1011 29.85 840 24.81 12.5 54.5 23 -7.8 18
13:55 1011 29.85 840 24.81 12.4 54.4 22 -8.6 16.5
14:00 1011 29.85 840 24.81 12.6 54.6 24 -7.6 18.2
14:05 1011 29.85 840 24.81 12.7 54.8 23 -7.8 18
14:10 1011 29.85 840 24.81 12.7 54.8 23 -8 17.6
14:15 1011 29.85 840 24.81 12.5 54.5 22 -8.3 17
14:20 1011 29.85 840 24.81 12.6 54.8 22 -8.4 16.9
14:25 1011 29.85 840 24.81 13 55.5 21 -8.8 16.2
14:30 1011 29.85 840 24.81 13 55.4 21 -8.6 16.4
14:35 1011 29.85 840 24.81 13 55.4 22 -8.4 17
14:40 1011 29.85 840 24.81 12.9 55.3 21 -8.6 16.5
14:45 1011 29.85 840 24.81 13 55.4 20 -9.3 15.3
14:50 1011 29.85 840 24.81 13.1 55.5 20 -9.2 15.4
14:55 1011 29.85 840 24.81 12.9 55.2 22 -8.3 17
15:00 1011 29.85 840 24.81 12.7 54.9 21 -9 15.8
15:05 1011 29.85 840 24.81 12.8 55 20 -9.9 14.2
15:10 1011 29.85 840 24.81 13.1 55.6 21 -8.9 15.9
15:15 1011 29.85 840 24.81 13 55.4 21 -8.9 16
15:20 1011 29.85 840 24.81 13.1 55.6 20 -9.1 15.6
15:25 1011 29.85 840 24.81 13.3 56 21 -8.7 16.4
15:30 1011 29.85 840 24.81 13.5 56.2 20 -9.1 15.6
15:35 1011 29.85 840 24.81 13.9 57 19 -9.4 15.1
15:40 1011 29.85 840 24.81 14.5 58.2 18 -9.4 15.2
15:45 1011 29.85 840 24.81 14.5 58.1 18 -9.7 14.6
15:50 1011 29.85 840 24.81 14.4 58 18 -9.7 14.6
15:55 1011 29.85 840 24.81 14.9 58.9 17 -10 14.1
16:00 1011 29.85 840 24.81 14.9 58.8 17 -9.6 14.7
16:05 1011 29.85 840 24.81 15.1 59.1 18 -9.4 15.1
16:10 1011 29.85 840 24.81 14.9 58.8 18 -9.2 15.4
16:15 1011 29.85 840 24.81 14.7 58.4 18 -9.4 15.1
16:20 1011 29.85 840 24.81 14.6 58.3 18 -9.4 15.1
16:25 1011 29.85 840 24.81 14.5 58.1 19 -8.9 16
16:30 1011 29.85 840 24.81 14.4 57.9 19 -9.2 15.5
16:35 1011 29.85 840 24.81 14.4 58 19 -9.2 15.5
16:40 1011 29.85 840 24.81 14.2 57.6 19 -8.8 16.1
16:45 1010 29.83 840 24.81 14.1 57.4 19 -9.2 15.5
16:50 1010 29.83 840 24.81 13.9 57 19 -9.3 15.2
16:55 1010 29.83 840 24.81 14 57.2 20 -8.7 16.4
17:00 1011 29.85 840 24.81 13.9 57.1 20 -8.4 16.9
17:05 1011 29.85 840 24.81 13.7 56.6 21 -8.1 17.5
17:10 1011 29.85 840 24.81 13.5 56.3 21 -8.4 16.9
17:15 1011 29.85 840 24.81 13.4 56 21 -8.5 16.8
17:20 1011 29.85 840 24.81 13.4 56 22 -8.2 17.3
17:25 1011 29.85 840 24.81 13.2 55.8 22 -7.7 18.1
17:30 1011 29.85 840 24.81 13.1 55.5 23 -7.3 18.8
17:35 1011 29.85 840 24.81 12.7 54.9 24 -7.5 18.5
17:40 1011 29.85 840 24.81 12.6 54.6 25 -7.1 19.3
17:45 1011 29.85 840 24.81 12.4 54.3 25 -7.3 18.9
17:50 1011 29.85 840 24.81 12.4 54.3 25 -7.2 19.1
17:55 1011 29.85 840 24.81 12.4 54.2 24 -7.4 18.7
18:00 1011 29.85 840 24.81 12.4 54.3 24 -7.7 18.1
18:05 1011 29.85 840 24.81 12.4 54.4 25 -6.9 19.5
18:10 1011 29.85 840 24.81 12.1 53.9 25 -7.1 19.2
18:15 1011 29.85 840 24.81 12.1 53.8 24 -8 17.6
18:20 1011 29.85 840 24.81 12.3 54.2 25 -7.1 19.2
18:25 1011 29.85 840 24.81 11.9 53.4 26 -7.2 19
18:30 1011 29.85 840 24.81 12.2 53.9 25 -7.1 19.3
18:35 1011 29.85 840 24.81 12.4 54.2 25 -7.3 18.9
18:40 1011 29.85 840 24.81 12.4 54.3 25 -7.2 19
18:45 1011 29.85 840 24.81 12.3 54.2 24 -7.4 18.7
18:50 1011 29.85 840 24.81 12.7 54.9 26 -6.5 20.3
18:55 1011 29.85 840 24.81 12.3 54.2 25 -7 19.4
19:00 1011 29.85 840 24.81 12.3 54.1 25 -7.2 19
19:05 1011 29.85 840 24.81 12.4 54.3 25 -6.9 19.6
19:10 1011 29.85 840 24.81 12.3 54.1 25 -7 19.4
19:15 1011 29.85 840 24.81 12.3 54.1 26 -6.9 19.7
19:20 1011 29.85 840 24.81 12.1 53.8 26 -6.7 19.9
19:25 1011 29.85 840 24.81 12.2 53.9 26 -6.6 20.1
19:30 1011 29.85 840 24.81 12.1 53.8 27 -6.4 20.4
19:35 1011 29.85 840 24.81 12.2 53.9 26 -6.8 19.8
19:40 1011 29.85 840 24.81 12.3 54.1 26 -6.7 19.9
19:45 1011 29.85 840 24.81 12.4 54.2 26 -6.5 20.2
19:50 1011 29.85 840 24.81 12.2 53.9 27 -6.5 20.3
19:55 1011 29.85 840 24.81 11.8 53.3 26 -7 19.4
20:00 1011 29.85 840 24.81 11.9 53.3 26 -7 19.4
20:05 1011 29.85 840 24.81 11.9 53.5 26 -6.8 19.8
20:10 1011 29.85 840 24.81 11.9 53.3 26 -6.9 19.6
20:15 1011 29.85 840 24.81 11.8 53.3 27 -6.6 20.1
20:20 1011 29.85 840 24.81 12 53.6 27 -6.3 20.6
20:25 1011 29.85 840 24.81 12 53.6 28 -6 21.3
20:30 1011 29.85 840 24.81 12 53.5 28 -6 21.2
20:35 1011 29.85 840 24.81 12.2 54 28 -5.9 21.3
20:40 1011 29.85 840 24.81 12.5 54.5 27 -6 21.2
20:45 1011 29.85 840 24.81 12.6 54.6 28 -5.5 22.1
20:50 1011 29.85 840 24.81 12.3 54.2 29 -5.2 22.7
20:55 1011 29.85 840 24.81 12.3 54.1 28 -5.5 22.1
21:00 1011 29.85 840 24.81 12.2 54 29 -5.1 22.9
21:05 1011 29.85 840 24.81 11.9 53.3 31 -4.9 23.2
21:10 1011 29.85 840 24.81 11.8 53.2 30 -5.1 22.9
21:15 1011 29.85 840 24.81 12.1 53.7 30 -5.1 22.8
21:20 1011 29.85 840 24.81 11.9 53.4 32 -4.1 24.6
21:25 1011 29.85 840 24.81 11.1 51.9 33 -4.5 23.8
21:30 1011 29.85 840 24.81 11.1 51.9 33 -4.6 23.8
21:35 1011 29.85 840 24.81 11 51.9 32 -4.8 23.4
21:40 1011 29.85 840 24.81 11.1 51.9 33 -4.4 24
21:45 1011 29.85 840 24.81 10.7 51.2 33 -4.7 23.5
21:50 1011 29.85 840 24.81 11 51.7 33 -4.5 23.8
21:55 1011 29.85 840 24.81 10.8 51.4 33 -4.7 23.6
22:00 1011 29.85 840 24.81 10.9 51.6 32 -5.2 22.6
22:05 1011 29.85 840 24.81 11.4 52.5 32 -4.6 23.7
22:10 1011 29.85 840 24.81 11.2 52.1 33 -4.7 23.6
22:15 1011 29.85 840 24.81 11 51.9 32 -4.8 23.4
22:20 1011 29.85 840 24.81 11.3 52.3 31 -5.2 22.7
22:25 1011 29.85 840 24.81 11.8 53.2 31 -4.9 23.1
22:30 1011 29.85 840 24.81 12.1 53.7 30 -4.8 23.3
22:35 1011 29.85 840 24.81 12.2 53.9 30 -4.7 23.5
22:40 1011 29.85 840 24.81 12 53.6 31 -4.8 23.4
22:45 1011 29.85 840 24.81 12.2 53.9 29 -5.2 22.7
22:50 1011 29.85 840 24.81 12.5 54.5 29 -5.1 22.9
22:55 1011 29.85 840 24.81 12.3 54.1 31 -4.3 24.3
23:00 1011 29.85 840 24.81 12 53.6 31 -4.7 23.5
23:05 1011 29.85 840 24.81 12 53.6 31 -4.7 23.5
23:10 1011 29.85 840 24.81 11.9 53.4 31 -4.6 23.8
23:15 1011 29.85 840 24.81 11.7 53.1 32 -4.5 23.8
23:20 1011 29.85 840 24.81 11.8 53.2 32 -4.5 23.9
23:25 1011 29.85 840 24.81 11.5 52.6 32 -4.5 24
23:30 1011 29.85 840 24.81 11.4 52.5 33 -4.3 24.2
23:35 1011 29.85 840 24.81 11.4 52.5 33 -4.3 24.3
23:40 1011 29.85 840 24.81 11.3 52.3 33 -4.2 24.4
23:45 1011 29.85 840 24.81 11.4 52.5 33 -4.2 24.5
23:50 1011 29.85 840 24.81 11.6 52.9 34 -3.9 25
23:55 1011 29.85 840 24.81 11.3 52.3 35 -3.8 25.2
24:00 1011 29.85 840 24.81 10.9 51.6 36 -3.6 25.4